Custer City, OK (73639)

11:41 AM CST on December 05, 2016 (GMT -0600)
East Hughes and 5th Street | | Change Station

Elev 1788 ft 35.75 °N, 98.74 °W | Updated 16 seconds ago

Overcast
Overcast
49.1 °F
Feels Like 46 °F
N
8.1
Wind Variable Wind from SE
Gusts 9.8 mph

Today
High -- | Low -- °F
--% Chance of Precip.
Yesterday
High -- | Low -- °F
Precip. -- in
Pressure 29.84 in
Visibility -9999.0 miles
Clouds Overcast 100 ft
Windchill 46 °F
Dew Point 40 °F
Humidity 72%
Rainfall 0.00 in
Snow Depth Not available.
7:30 AM 5:21 PM
Waxing Crescent, 33% visible
METAR KCLK 051655Z AUTO 17013KT OVC001 05/03 A2984 RMK AO2 PWINO
Pressure 29.84 in
Visibility -9999.0 miles
Clouds Overcast 100 ft
Windchill 46 °F
Dew Point 40 °F
Humidity 72%
Rainfall 0.00 in
Snow Depth Not available.
7:30 AM 5:21 PM
Waxing Crescent, 33% visible
METAR KCLK 051655Z AUTO 17013KT OVC001 05/03 A2984 RMK AO2 PWINO

10-Day Weather Forecast

Almanac

Astronomy

Dec. 05, 2016 Rise Set
Actual Time
Civil Twilight
Nautical Twilight
Astronomical Twilight
Moon
Length of Visible Light
Length of Day
Tomorrow will be .
, % of the Moon is Illuminated

Today's Extremes

State Highs State Lows

Community

WunderPhotos

Upload Photos

1,955,845 photos uploaded!

WunderBlog® & News

Nearby

Air Quality

  Air Quality AQ Index Pollutant
Not available.

Snow Depth

Station Depth Elevation

Earthquake Activity

City Distance Mag. Time & Date
Minimum magnitude displayed is 2.5.

Coastal Water Temperatures

Place Temperature

Stations

Nearby Weather Stations

Station Location Temp. Windchill Dew Point Humidity Wind Precip. Elev Updated Type
                   

Watches & Warnings

There are currently no watches in effect.